createdAt,value
2023-01-26T00:00:07.838Z,13.93
2023-01-26T00:00:50.336Z,13.70
2023-01-26T00:01:31.994Z,13.15
2023-01-26T00:02:13.705Z,12.25
2023-01-26T00:02:55.436Z,14.50
2023-01-26T00:03:37.129Z,13.13
2023-01-26T00:04:18.807Z,13.77
2023-01-26T00:05:00.582Z,14.27
2023-01-26T00:05:42.868Z,16.25
2023-01-26T00:06:26.526Z,14.13
2023-01-26T00:07:08.257Z,14.18
2023-01-26T00:07:49.905Z,14.00
2023-01-26T00:08:35.732Z,14.32
2023-01-26T00:09:17.376Z,13.88
2023-01-26T00:09:59.015Z,17.33
2023-01-26T00:10:42.119Z,17.20
2023-01-26T00:11:30.132Z,16.00
2023-01-26T00:12:11.764Z,16.48
2023-01-26T00:12:53.428Z,16.05
2023-01-26T00:13:36.120Z,16.83
2023-01-26T00:14:17.770Z,17.58
2023-01-26T00:14:59.404Z,15.68
2023-01-26T00:15:44.941Z,16.67
2023-01-26T00:16:27.787Z,17.48
2023-01-26T00:17:09.473Z,17.65
2023-01-26T00:17:51.564Z,17.83
2023-01-26T00:18:33.255Z,17.33
2023-01-26T00:19:14.962Z,16.05
2023-01-26T00:19:58.574Z,17.05
2023-01-26T00:20:40.251Z,16.83
2023-01-26T00:21:23.439Z,15.85
2023-01-26T00:22:05.099Z,17.35
2023-01-26T00:22:46.863Z,15.45
2023-01-26T00:23:30.464Z,15.50
2023-01-26T00:24:12.132Z,17.67
2023-01-26T00:24:53.926Z,17.15
2023-01-26T00:25:39.976Z,20.58
2023-01-26T00:26:25.980Z,17.92
2023-01-26T00:27:07.642Z,18.05
2023-01-26T00:27:49.382Z,19.30
2023-01-26T00:28:31.015Z,17.27
2023-01-26T00:29:12.681Z,16.42
2023-01-26T00:29:54.367Z,15.10
2023-01-26T00:30:36.381Z,18.38
2023-01-26T00:31:20.422Z,17.63
2023-01-26T00:32:02.133Z,16.52
2023-01-26T00:32:43.806Z,17.13
2023-01-26T00:33:25.464Z,17.40
2023-01-26T00:34:07.183Z,16.17
2023-01-26T00:34:48.931Z,17.85
2023-01-26T00:35:33.487Z,16.83
2023-01-26T00:36:16.596Z,17.27
2023-01-26T00:36:58.321Z,16.15
2023-01-26T00:37:43.222Z,16.13
2023-01-26T00:38:24.916Z,14.60
2023-01-26T00:39:06.506Z,15.38
2023-01-26T00:39:50.036Z,14.80
2023-01-26T00:40:31.775Z,14.07
2023-01-26T00:41:33.922Z,13.25
2023-01-26T00:42:16.025Z,15.65
2023-01-26T00:42:59.183Z,17.15
2023-01-26T00:43:40.792Z,13.98
2023-01-26T00:44:22.499Z,12.80
2023-01-26T00:45:04.759Z,13.35
2023-01-26T00:45:47.179Z,12.73
2023-01-26T00:46:29.343Z,13.30
2023-01-26T00:47:13.512Z,12.63
2023-01-26T00:47:55.162Z,11.70
2023-01-26T00:48:36.794Z,12.68
2023-01-26T00:49:18.448Z,13.27
2023-01-26T00:50:00.148Z,12.38
2023-01-26T00:50:44.035Z,13.95
2023-01-26T00:51:25.684Z,13.27
2023-01-26T00:52:07.551Z,13.45
2023-01-26T00:52:49.395Z,11.70
2023-01-26T00:53:33.846Z,11.57
2023-01-26T00:54:15.663Z,12.95
2023-01-26T00:54:57.632Z,12.43
2023-01-26T00:55:39.259Z,11.80
2023-01-26T00:56:21.202Z,12.77
2023-01-26T00:57:02.930Z,14.45
2023-01-26T00:57:44.606Z,14.00
2023-01-26T00:58:26.195Z,14.07
2023-01-26T00:59:08.771Z,13.18
2023-01-26T00:59:50.472Z,13.15
2023-01-26T01:00:33.323Z,13.02
2023-01-26T01:01:15.047Z,13.57
2023-01-26T01:01:58.186Z,19.40
2023-01-26T01:02:39.964Z,17.92
2023-01-26T01:03:21.667Z,15.63
2023-01-26T01:04:03.362Z,14.85
2023-01-26T01:04:44.981Z,15.48
2023-01-26T01:05:28.863Z,14.13
2023-01-26T01:06:10.605Z,16.10
2023-01-26T01:06:52.262Z,13.98
2023-01-26T01:07:34.400Z,15.50
2023-01-26T01:08:16.033Z,14.68
2023-01-26T01:08:57.674Z,15.02
2023-01-26T01:09:39.316Z,16.05
2023-01-26T01:10:21.225Z,14.43
2023-01-26T01:11:05.509Z,14.32
2023-01-26T01:11:47.493Z,14.75
2023-01-26T01:12:29.692Z,13.32
2023-01-26T01:13:11.334Z,13.25
2023-01-26T01:13:55.219Z,14.52
2023-01-26T01:14:36.889Z,18.70
2023-01-26T01:15:18.663Z,14.15
2023-01-26T01:16:00.759Z,14.20
2023-01-26T01:16:43.051Z,14.93
2023-01-26T01:17:24.774Z,15.40
2023-01-26T01:18:06.435Z,12.95
2023-01-26T01:18:48.250Z,14.73
2023-01-26T01:19:30.039Z,12.25
2023-01-26T01:20:12.327Z,12.30
2023-01-26T01:20:56.279Z,14.13
2023-01-26T01:21:40.664Z,13.32
2023-01-26T01:22:25.063Z,13.05
2023-01-26T01:23:07.408Z,14.90
2023-01-26T01:23:49.457Z,14.65
2023-01-26T01:24:34.354Z,11.13
2023-01-26T01:25:15.956Z,13.35
2023-01-26T01:25:58.927Z,11.52
2023-01-26T01:26:41.977Z,13.55
2023-01-26T01:27:24.917Z,12.32
2023-01-26T01:28:06.562Z,13.10
2023-01-26T01:28:48.206Z,13.82
2023-01-26T01:29:29.847Z,12.48
2023-01-26T01:30:12.633Z,14.45
2023-01-26T01:30:54.645Z,19.58
2023-01-26T01:31:36.436Z,19.92
2023-01-26T01:32:19.530Z,17.77
2023-01-26T01:33:01.442Z,16.63
2023-01-26T01:33:43.314Z,15.18
2023-01-26T01:34:25.241Z,13.23
2023-01-26T01:35:07.628Z,15.43
2023-01-26T01:36:18.515Z,15.63
2023-01-26T01:37:00.163Z,15.55
2023-01-26T01:37:42.024Z,16.30
2023-01-26T01:38:23.777Z,17.17
2023-01-26T01:39:05.470Z,15.38
2023-01-26T01:39:49.114Z,15.25
2023-01-26T01:40:31.000Z,17.75
2023-01-26T01:41:18.611Z,15.68
2023-01-26T01:42:00.259Z,15.20
2023-01-26T01:42:48.927Z,15.85
2023-01-26T01:43:30.680Z,17.30
2023-01-26T01:44:15.015Z,18.67
2023-01-26T01:45:21.348Z,20.10
2023-01-26T01:46:29.552Z,16.80
2023-01-26T01:47:26.821Z,16.40
2023-01-26T01:48:15.656Z,15.63
2023-01-26T01:49:06.670Z,16.85
2023-01-26T01:49:51.145Z,16.63
2023-01-26T01:50:39.496Z,16.00
2023-01-26T01:51:31.133Z,18.25
2023-01-26T01:52:17.578Z,17.92
2023-01-26T01:52:59.412Z,17.23
2023-01-26T01:53:46.450Z,16.95
2023-01-26T01:54:32.710Z,17.40
2023-01-26T01:55:16.488Z,18.85
2023-01-26T01:56:05.613Z,18.17
2023-01-26T01:56:53.428Z,18.00
2023-01-26T01:57:44.992Z,19.58
2023-01-26T01:58:31.356Z,18.70
2023-01-26T01:59:14.072Z,18.13
2023-01-26T02:00:09.728Z,19.92
2023-01-26T02:01:00.290Z,19.30
2023-01-26T02:01:42.261Z,19.38
2023-01-26T02:02:23.979Z,19.67
2023-01-26T02:03:11.182Z,18.08
2023-01-26T02:03:59.436Z,18.45
2023-01-26T02:04:42.182Z,19.15
2023-01-26T02:05:31.135Z,20.13
2023-01-26T02:06:43.647Z,21.23
2023-01-26T02:07:25.848Z,19.70
2023-01-26T02:08:09.793Z,18.40
2023-01-26T02:08:54.953Z,21.60
2023-01-26T02:09:57.385Z,21.13
2023-01-26T02:10:39.776Z,18.77
2023-01-26T02:11:38.414Z,21.27
2023-01-26T02:12:23.368Z,21.27
2023-01-26T02:13:06.361Z,19.10
2023-01-26T02:13:49.734Z,19.25
2023-01-26T02:14:34.063Z,21.55
2023-01-26T02:15:17.096Z,21.40
2023-01-26T02:16:00.308Z,20.25
2023-01-26T02:16:41.975Z,20.27
2023-01-26T02:17:24.765Z,20.77
2023-01-26T02:18:06.588Z,20.83
2023-01-26T02:18:48.706Z,19.48
2023-01-26T02:19:42.515Z,19.92
2023-01-26T02:20:54.047Z,18.30
2023-01-26T02:21:35.789Z,19.35
2023-01-26T02:22:32.704Z,19.73
2023-01-26T02:23:26.371Z,18.23
2023-01-26T02:24:27.129Z,17.98
2023-01-26T02:25:40.442Z,22.38
2023-01-26T02:26:25.263Z,17.80
2023-01-26T02:27:07.551Z,18.38
2023-01-26T02:27:49.434Z,19.70
2023-01-26T02:28:31.422Z,21.40
2023-01-26T02:29:13.719Z,18.73
2023-01-26T02:30:01.186Z,19.20
2023-01-26T02:30:43.297Z,20.17
2023-01-26T02:31:26.599Z,19.33
2023-01-26T02:32:09.479Z,20.02
2023-01-26T02:32:52.228Z,18.70
2023-01-26T02:33:34.309Z,20.40
2023-01-26T02:34:18.187Z,18.30
2023-01-26T02:34:59.918Z,19.90
2023-01-26T02:35:41.844Z,18.65
2023-01-26T02:36:30.487Z,18.00
2023-01-26T02:37:15.133Z,18.48
2023-01-26T02:37:57.927Z,18.88
2023-01-26T02:38:42.889Z,18.63
2023-01-26T02:39:43.234Z,21.13
2023-01-26T02:40:36.136Z,20.25
2023-01-26T02:41:38.733Z,21.55
2023-01-26T02:42:38.731Z,20.63
2023-01-26T02:43:21.278Z,18.48
2023-01-26T02:44:04.925Z,18.73
2023-01-26T02:44:46.893Z,18.17
2023-01-26T02:45:31.362Z,19.75
2023-01-26T02:46:14.146Z,19.92
2023-01-26T02:46:56.362Z,20.15
2023-01-26T02:47:38.241Z,18.40
2023-01-26T02:48:39.130Z,18.40
2023-01-26T02:49:39.686Z,20.45
2023-01-26T02:50:21.630Z,18.73
2023-01-26T02:51:04.362Z,19.30
2023-01-26T02:51:46.211Z,21.20
2023-01-26T02:52:31.636Z,19.08
2023-01-26T02:53:18.241Z,19.65
2023-01-26T02:54:00.174Z,18.85
2023-01-26T02:55:00.232Z,17.90
2023-01-26T02:55:41.914Z,19.33
2023-01-26T02:56:23.597Z,17.23
2023-01-26T02:57:05.998Z,18.40
2023-01-26T02:57:48.776Z,18.70
2023-01-26T02:58:30.510Z,19.23
2023-01-26T02:59:12.118Z,20.60
2023-01-26T02:59:53.749Z,20.63
2023-01-26T03:00:37.360Z,19.67
2023-01-26T03:01:19.306Z,16.95
2023-01-26T03:02:04.105Z,20.48
2023-01-26T03:02:46.902Z,17.33
2023-01-26T03:03:41.672Z,19.25
2023-01-26T03:04:23.633Z,19.75
2023-01-26T03:05:05.713Z,20.17
2023-01-26T03:05:47.614Z,20.58
2023-01-26T03:06:29.383Z,19.67
2023-01-26T03:07:12.330Z,17.48
2023-01-26T03:07:54.100Z,19.40
2023-01-26T03:08:40.010Z,21.03
2023-01-26T03:09:21.657Z,18.30
2023-01-26T03:10:04.559Z,18.75
2023-01-26T03:10:47.596Z,18.10
2023-01-26T03:11:42.016Z,17.77
2023-01-26T03:12:23.921Z,16.92
2023-01-26T03:13:05.531Z,19.92
2023-01-26T03:13:47.849Z,18.27
2023-01-26T03:14:29.522Z,16.75
2023-01-26T03:15:30.757Z,18.80
2023-01-26T03:16:13.558Z,22.40
2023-01-26T03:16:56.004Z,22.58
2023-01-26T03:17:38.255Z,21.30
2023-01-26T03:18:41.287Z,22.17
2023-01-26T03:19:41.315Z,19.27
2023-01-26T03:20:43.188Z,19.65
2023-01-26T03:21:43.701Z,17.77
2023-01-26T03:22:46.508Z,20.38
2023-01-26T03:23:46.857Z,20.17
2023-01-26T03:24:48.633Z,20.52
2023-01-26T03:25:48.789Z,19.63
2023-01-26T03:26:48.944Z,21.45
2023-01-26T03:27:36.819Z,18.42
2023-01-26T03:28:22.326Z,18.50
2023-01-26T03:29:04.776Z,21.45
2023-01-26T03:29:46.720Z,19.63
2023-01-26T03:30:28.709Z,19.55
2023-01-26T03:31:10.867Z,20.85
2023-01-26T03:31:54.263Z,19.05
2023-01-26T03:32:36.273Z,18.20
2023-01-26T03:33:20.919Z,19.38
2023-01-26T03:34:03.572Z,18.35
2023-01-26T03:34:46.231Z,18.95
2023-01-26T03:35:27.901Z,16.63
2023-01-26T03:36:09.621Z,18.45
2023-01-26T03:36:51.408Z,18.65
2023-01-26T03:37:43.541Z,20.40
2023-01-26T03:38:29.925Z,20.15
2023-01-26T03:39:33.049Z,20.75
2023-01-26T03:40:34.187Z,18.83
2023-01-26T03:41:34.518Z,19.75
2023-01-26T03:42:34.705Z,19.17
2023-01-26T03:43:35.097Z,19.05
2023-01-26T03:44:35.168Z,18.48
2023-01-26T03:45:35.697Z,18.80
2023-01-26T03:46:36.309Z,17.67
2023-01-26T03:47:37.977Z,17.45
2023-01-26T03:48:38.245Z,18.88
2023-01-26T03:49:39.486Z,17.88
2023-01-26T03:50:40.805Z,18.05
2023-01-26T03:51:41.038Z,19.20
2023-01-26T03:52:41.515Z,18.58
2023-01-26T03:53:45.809Z,18.55
2023-01-26T03:54:45.958Z,19.00
2023-01-26T03:55:46.301Z,18.70
2023-01-26T03:56:32.578Z,17.80
2023-01-26T03:57:19.312Z,18.73
2023-01-26T03:58:01.053Z,16.90
2023-01-26T03:58:45.562Z,19.50
2023-01-26T03:59:39.505Z,19.02
2023-01-26T04:00:32.729Z,18.92
2023-01-26T04:01:20.878Z,18.88
2023-01-26T04:02:33.134Z,18.85
2023-01-26T04:03:34.687Z,18.67
2023-01-26T04:04:34.826Z,19.33
2023-01-26T04:05:35.334Z,18.52
2023-01-26T04:06:36.377Z,18.35
2023-01-26T04:07:37.037Z,18.75
2023-01-26T04:08:24.616Z,18.23
2023-01-26T04:09:15.234Z,19.27
2023-01-26T04:09:56.975Z,19.25
2023-01-26T04:10:38.639Z,18.15
2023-01-26T04:11:23.598Z,19.15
2023-01-26T04:12:06.425Z,20.13
2023-01-26T04:13:11.875Z,18.20
2023-01-26T04:14:14.698Z,19.05
2023-01-26T04:15:15.783Z,18.23
2023-01-26T04:16:17.183Z,19.33
2023-01-26T04:17:19.007Z,18.17
2023-01-26T04:18:24.875Z,20.13
2023-01-26T04:19:25.547Z,20.25
2023-01-26T04:20:26.701Z,18.08
2023-01-26T04:21:27.069Z,20.65
2023-01-26T04:22:08.790Z,20.27
2023-01-26T04:22:51.957Z,20.55
2023-01-26T04:23:33.974Z,19.15
2023-01-26T04:24:17.169Z,20.23
2023-01-26T04:24:59.858Z,21.70
2023-01-26T04:25:41.539Z,20.00
2023-01-26T04:26:25.790Z,18.17
2023-01-26T04:27:07.986Z,20.05
2023-01-26T04:27:53.915Z,19.50
2023-01-26T04:28:35.999Z,19.13
2023-01-26T04:29:17.822Z,20.95
2023-01-26T04:30:03.484Z,22.25
2023-01-26T04:30:45.260Z,22.15
2023-01-26T04:31:27.158Z,20.58
2023-01-26T04:32:09.045Z,23.50
2023-01-26T04:32:52.191Z,20.15
2023-01-26T04:33:33.902Z,19.98
2023-01-26T04:34:15.906Z,23.15
2023-01-26T04:34:57.897Z,20.70
2023-01-26T04:35:40.973Z,20.30
2023-01-26T04:36:22.982Z,21.15
2023-01-26T04:37:05.876Z,20.42
2023-01-26T04:37:58.182Z,22.05
2023-01-26T04:38:39.949Z,19.90
2023-01-26T04:39:21.758Z,20.55
2023-01-26T04:40:09.275Z,19.75
2023-01-26T04:40:55.373Z,21.05
2023-01-26T04:41:37.427Z,19.38
2023-01-26T04:42:24.425Z,21.55
2023-01-26T04:43:06.535Z,21.00
2023-01-26T04:43:48.245Z,20.42
2023-01-26T04:44:30.457Z,20.50
2023-01-26T04:45:12.880Z,23.30
2023-01-26T04:46:06.335Z,19.95
2023-01-26T04:46:49.468Z,21.27
2023-01-26T04:47:32.567Z,18.75
2023-01-26T04:48:14.261Z,19.08
2023-01-26T04:48:56.543Z,19.85
2023-01-26T04:49:39.435Z,20.85
2023-01-26T04:50:21.347Z,21.15
2023-01-26T04:51:05.885Z,21.30
2023-01-26T04:51:47.668Z,19.80
2023-01-26T04:52:29.468Z,19.33
2023-01-26T04:53:11.582Z,18.15
2023-01-26T04:53:53.339Z,17.92
2023-01-26T04:54:36.184Z,19.90
2023-01-26T04:55:18.302Z,17.95
2023-01-26T04:56:00.177Z,17.45
2023-01-26T04:56:41.875Z,16.52
2023-01-26T04:57:24.601Z,18.83
2023-01-26T04:58:07.106Z,17.20
2023-01-26T04:58:49.032Z,20.10
2023-01-26T04:59:31.014Z,18.58
2023-01-26T05:00:15.683Z,20.27
2023-01-26T05:00:58.517Z,19.48
2023-01-26T05:01:41.018Z,20.55
2023-01-26T05:02:22.898Z,18.85
2023-01-26T05:03:04.832Z,19.27
2023-01-26T05:03:47.262Z,18.65
2023-01-26T05:04:28.963Z,17.73
2023-01-26T05:05:10.789Z,18.25
2023-01-26T05:05:54.288Z,17.45
2023-01-26T05:06:39.093Z,17.20
2023-01-26T05:07:20.881Z,18.17
2023-01-26T05:08:04.233Z,17.33
2023-01-26T05:08:47.769Z,18.88
2023-01-26T05:09:29.554Z,17.55
2023-01-26T05:10:31.611Z,17.20
2023-01-26T05:11:31.965Z,18.42
2023-01-26T05:12:34.998Z,17.10
2023-01-26T05:13:39.809Z,17.23
2023-01-26T05:14:44.403Z,18.48
2023-01-26T05:15:44.887Z,20.25
2023-01-26T05:16:31.559Z,17.17
2023-01-26T05:17:22.501Z,18.50
2023-01-26T05:18:12.340Z,18.05
2023-01-26T05:19:08.690Z,17.65
2023-01-26T05:19:58.962Z,16.77
2023-01-26T05:20:55.002Z,22.50
2023-01-26T05:21:53.907Z,19.30
2023-01-26T05:22:35.759Z,18.08
2023-01-26T05:23:43.650Z,20.23
2023-01-26T05:24:44.752Z,18.80
2023-01-26T05:25:39.108Z,19.02
2023-01-26T05:26:25.194Z,17.33
2023-01-26T05:27:23.449Z,18.13
2023-01-26T05:28:08.440Z,17.70
2023-01-26T05:28:50.128Z,18.35
2023-01-26T05:29:32.174Z,17.07
2023-01-26T05:30:14.844Z,18.77
2023-01-26T05:30:57.165Z,21.38
2023-01-26T05:31:39.113Z,20.50
2023-01-26T05:32:22.174Z,18.42
2023-01-26T05:33:10.054Z,19.45
2023-01-26T05:33:51.810Z,21.20
2023-01-26T05:34:37.109Z,19.67
2023-01-26T05:35:19.810Z,17.48
2023-01-26T05:36:05.594Z,17.70
2023-01-26T05:36:47.725Z,18.80
2023-01-26T05:37:29.830Z,16.83
2023-01-26T05:38:13.793Z,19.35
2023-01-26T05:38:55.901Z,17.63
2023-01-26T05:39:42.076Z,17.65
2023-01-26T05:40:24.883Z,17.70
2023-01-26T05:41:07.598Z,17.42
2023-01-26T05:42:01.746Z,19.27
2023-01-26T05:43:13.170Z,19.50
2023-01-26T05:44:24.751Z,18.17
2023-01-26T05:45:11.454Z,17.65
2023-01-26T05:45:54.472Z,18.25
2023-01-26T05:46:37.096Z,18.27
2023-01-26T05:47:19.978Z,18.65
2023-01-26T05:48:03.754Z,18.98
2023-01-26T05:48:46.057Z,21.98
2023-01-26T05:49:27.724Z,18.50
2023-01-26T05:50:11.327Z,20.05
2023-01-26T05:50:56.339Z,22.70
2023-01-26T05:51:38.030Z,24.15
2023-01-26T05:52:21.869Z,20.90
2023-01-26T05:53:06.122Z,22.05
2023-01-26T05:53:48.206Z,21.92
2023-01-26T05:54:30.037Z,21.60
2023-01-26T05:55:12.204Z,17.83
2023-01-26T05:55:53.981Z,18.58
2023-01-26T05:56:38.483Z,17.88
2023-01-26T05:57:22.105Z,17.58
2023-01-26T05:58:14.510Z,19.65
2023-01-26T05:58:56.130Z,18.33
2023-01-26T05:59:39.025Z,16.05
2023-01-26T06:00:22.705Z,17.42
2023-01-26T06:01:12.000Z,19.05
2023-01-26T06:02:02.519Z,18.00
2023-01-26T06:02:46.297Z,18.45
2023-01-26T06:03:31.054Z,18.15
2023-01-26T06:04:12.724Z,16.85
2023-01-26T06:05:00.572Z,18.40
2023-01-26T06:05:42.330Z,18.67
2023-01-26T06:06:37.667Z,17.42
2023-01-26T06:07:36.317Z,17.85
2023-01-26T06:08:26.890Z,17.48
2023-01-26T06:09:38.067Z,16.88
2023-01-26T06:10:35.176Z,18.08
2023-01-26T06:11:49.455Z,16.95
2023-01-26T06:12:47.474Z,19.02
2023-01-26T06:13:36.078Z,17.85
2023-01-26T06:14:31.976Z,18.42
2023-01-26T06:15:14.262Z,16.55
2023-01-26T06:16:02.541Z,16.55
2023-01-26T06:16:45.556Z,17.15
2023-01-26T06:17:27.590Z,17.45
2023-01-26T06:18:15.051Z,20.08
2023-01-26T06:19:03.374Z,14.95
2023-01-26T06:19:45.193Z,18.98
2023-01-26T06:20:27.112Z,17.63
2023-01-26T06:21:12.848Z,19.20
2023-01-26T06:21:54.596Z,17.40
2023-01-26T06:22:37.539Z,17.77
2023-01-26T06:23:19.162Z,17.50
2023-01-26T06:24:01.947Z,17.83
2023-01-26T06:24:43.758Z,17.75
2023-01-26T06:25:25.537Z,21.05
2023-01-26T06:26:09.373Z,17.98
2023-01-26T06:26:52.709Z,18.10
2023-01-26T06:27:36.073Z,18.00
2023-01-26T06:28:24.500Z,18.48
2023-01-26T06:29:06.693Z,17.50
2023-01-26T06:29:50.052Z,19.90
2023-01-26T06:30:33.059Z,17.38
2023-01-26T06:31:17.592Z,20.13
2023-01-26T06:32:00.177Z,20.42
2023-01-26T06:32:42.780Z,20.10
2023-01-26T06:33:25.204Z,20.58
2023-01-26T06:34:07.926Z,20.98
2023-01-26T06:34:53.827Z,18.30
2023-01-26T06:35:36.482Z,20.42
2023-01-26T06:36:20.080Z,18.95
2023-01-26T06:37:02.793Z,17.73
2023-01-26T06:37:50.360Z,19.33
2023-01-26T06:38:32.864Z,18.05
2023-01-26T06:39:14.705Z,18.65
2023-01-26T06:39:56.413Z,19.95
2023-01-26T06:40:38.053Z,20.05
2023-01-26T06:41:19.835Z,19.10
2023-01-26T06:42:01.548Z,18.73
2023-01-26T06:42:50.130Z,21.02
2023-01-26T06:43:35.336Z,17.10
2023-01-26T06:44:17.206Z,18.90
2023-01-26T06:44:59.748Z,19.13
2023-01-26T06:45:42.602Z,18.63
2023-01-26T06:46:24.533Z,21.33
2023-01-26T06:47:08.756Z,18.05
2023-01-26T06:47:51.667Z,18.33
2023-01-26T06:48:35.129Z,17.70
2023-01-26T06:49:18.150Z,18.05
2023-01-26T06:50:00.430Z,20.27
2023-01-26T06:50:44.563Z,18.95
2023-01-26T06:52:07.371Z,20.48
2023-01-26T06:53:21.637Z,17.70
2023-01-26T06:54:15.523Z,18.90
2023-01-26T06:55:38.397Z,21.77
2023-01-26T06:56:39.354Z,21.38
2023-01-26T06:57:30.132Z,19.13
2023-01-26T06:58:20.764Z,18.40
2023-01-26T06:59:13.718Z,18.92
2023-01-26T07:00:24.909Z,18.42
2023-01-26T07:01:32.653Z,17.02
2023-01-26T07:02:20.230Z,20.25
2023-01-26T07:03:01.891Z,18.48
2023-01-26T07:03:43.872Z,20.30
2023-01-26T07:04:26.533Z,17.83
2023-01-26T07:05:08.876Z,19.17
2023-01-26T07:05:51.126Z,21.30
2023-01-26T07:06:33.141Z,20.80
2023-01-26T07:07:15.386Z,22.50
2023-01-26T07:07:58.204Z,22.15
2023-01-26T07:08:40.265Z,21.23
2023-01-26T07:09:21.899Z,20.95
2023-01-26T07:10:06.765Z,21.73
2023-01-26T07:10:49.980Z,20.20
2023-01-26T07:11:32.704Z,19.25
2023-01-26T07:12:14.965Z,18.90
2023-01-26T07:12:56.716Z,19.83
2023-01-26T07:13:39.042Z,20.20
2023-01-26T07:14:20.714Z,20.02
2023-01-26T07:15:02.352Z,19.10
2023-01-26T07:15:43.992Z,20.35
2023-01-26T07:16:26.231Z,21.02
2023-01-26T07:17:07.845Z,19.83
2023-01-26T07:17:49.572Z,19.35
2023-01-26T07:18:31.511Z,21.85
2023-01-26T07:19:13.289Z,22.00
2023-01-26T07:19:54.930Z,19.67
2023-01-26T07:20:37.210Z,19.73
2023-01-26T07:21:19.008Z,21.48
2023-01-26T07:22:01.440Z,18.98
2023-01-26T07:22:43.433Z,17.95
2023-01-26T07:23:25.098Z,18.67
2023-01-26T07:24:08.126Z,17.63
2023-01-26T07:24:49.825Z,18.15
2023-01-26T07:25:31.467Z,17.85
2023-01-26T07:26:14.160Z,16.30
2023-01-26T07:26:56.463Z,18.00
2023-01-26T07:27:38.110Z,16.02
2023-01-26T07:28:19.793Z,18.50
2023-01-26T07:29:01.471Z,17.98
2023-01-26T07:29:43.237Z,17.05
2023-01-26T07:30:25.456Z,16.83
2023-01-26T07:31:08.484Z,15.10
2023-01-26T07:31:50.767Z,16.55
2023-01-26T07:32:32.431Z,16.10
2023-01-26T07:33:14.293Z,16.83
2023-01-26T07:33:56.013Z,16.50
2023-01-26T07:34:37.770Z,16.55
2023-01-26T07:35:19.431Z,17.73
2023-01-26T07:36:01.811Z,17.83
2023-01-26T07:36:43.620Z,18.10
2023-01-26T07:37:29.690Z,16.58
2023-01-26T07:38:11.361Z,13.52
2023-01-26T07:38:53.035Z,16.80
2023-01-26T07:39:34.661Z,16.30
2023-01-26T07:40:16.635Z,17.48
2023-01-26T07:40:58.328Z,18.02
2023-01-26T07:41:40.148Z,17.08
2023-01-26T07:42:41.098Z,18.38
2023-01-26T07:43:54.593Z,15.85
2023-01-26T07:44:36.221Z,16.25
2023-01-26T07:45:17.958Z,17.10
2023-01-26T07:45:59.551Z,15.30
2023-01-26T07:46:41.510Z,18.40
2023-01-26T07:47:23.364Z,18.30
2023-01-26T07:48:05.100Z,17.63
2023-01-26T07:48:46.777Z,18.60
2023-01-26T07:49:28.439Z,18.48
2023-01-26T07:50:11.440Z,16.95
2023-01-26T07:50:53.234Z,17.80
2023-01-26T07:51:34.908Z,16.63
2023-01-26T07:52:16.576Z,16.80
2023-01-26T07:53:00.994Z,16.05
2023-01-26T07:53:43.542Z,14.82
2023-01-26T07:54:25.242Z,14.07
2023-01-26T07:55:07.283Z,14.15
2023-01-26T07:55:49.440Z,15.70
2023-01-26T07:56:31.477Z,14.98
2023-01-26T07:57:16.075Z,14.35
2023-01-26T07:57:57.891Z,14.73
2023-01-26T07:58:40.106Z,14.82
2023-01-26T07:59:22.907Z,12.25
2023-01-26T08:00:05.227Z,12.40
2023-01-26T08:00:53.521Z,13.60
2023-01-26T08:01:35.272Z,13.48
2023-01-26T08:02:17.000Z,13.80
2023-01-26T08:02:58.758Z,13.13
2023-01-26T08:03:41.516Z,14.60
2023-01-26T08:04:23.178Z,14.05
2023-01-26T08:05:05.218Z,14.57
2023-01-26T08:05:47.758Z,12.77
2023-01-26T08:06:29.552Z,13.25
2023-01-26T08:07:11.489Z,14.23
2023-01-26T08:07:57.019Z,13.63
2023-01-26T08:08:41.782Z,14.88
2023-01-26T08:09:24.716Z,14.57
2023-01-26T08:10:07.042Z,14.85
2023-01-26T08:10:48.644Z,13.43
2023-01-26T08:11:30.277Z,13.60
2023-01-26T08:12:11.994Z,14.50
2023-01-26T08:12:53.671Z,14.27
2023-01-26T08:13:36.304Z,15.27
2023-01-26T08:14:18.128Z,13.70
2023-01-26T08:14:59.796Z,15.13
2023-01-26T08:15:42.277Z,14.65
2023-01-26T08:16:23.980Z,13.57
2023-01-26T08:17:05.791Z,14.07
2023-01-26T08:17:47.457Z,14.95
2023-01-26T08:18:29.455Z,13.18
2023-01-26T08:19:11.104Z,13.77
2023-01-26T08:19:52.725Z,14.90
2023-01-26T08:20:34.488Z,17.15
2023-01-26T08:21:18.316Z,15.45
2023-01-26T08:22:00.077Z,17.50
2023-01-26T08:22:41.792Z,16.45
2023-01-26T08:23:23.441Z,16.65
2023-01-26T08:24:06.183Z,14.52
2023-01-26T08:24:48.215Z,13.57
2023-01-26T08:25:34.115Z,15.10
2023-01-26T08:26:17.985Z,14.88
2023-01-26T08:26:59.648Z,14.95
2023-01-26T08:27:41.314Z,15.25
2023-01-26T08:28:23.010Z,15.68
2023-01-26T08:29:04.731Z,15.23
2023-01-26T08:29:46.429Z,14.02
2023-01-26T08:30:28.071Z,15.93
2023-01-26T08:31:18.899Z,16.13
2023-01-26T08:32:00.796Z,14.07
2023-01-26T08:32:44.761Z,14.48
2023-01-26T08:33:26.417Z,14.52
2023-01-26T08:34:08.080Z,15.07
2023-01-26T08:34:50.432Z,14.60
2023-01-26T08:35:32.816Z,18.42
2023-01-26T08:36:15.801Z,17.92
2023-01-26T08:36:57.467Z,16.90
2023-01-26T08:37:39.174Z,16.38
2023-01-26T08:38:21.064Z,17.15
2023-01-26T08:39:02.758Z,15.38
2023-01-26T08:39:44.395Z,15.05
2023-01-26T08:40:26.739Z,14.00
2023-01-26T08:41:09.115Z,14.85
2023-01-26T08:41:50.965Z,14.38
2023-01-26T08:42:32.654Z,13.93
2023-01-26T08:43:14.259Z,17.65
2023-01-26T08:43:59.183Z,15.43
2023-01-26T08:44:40.886Z,17.42
2023-01-26T08:45:22.567Z,23.95
2023-01-26T08:46:05.277Z,19.20
2023-01-26T08:46:47.038Z,15.77
2023-01-26T08:47:28.714Z,15.45
2023-01-26T08:48:10.378Z,13.77
2023-01-26T08:48:52.496Z,14.63
2023-01-26T08:49:34.117Z,14.30
2023-01-26T08:50:15.856Z,15.70
2023-01-26T08:51:00.248Z,13.85
2023-01-26T08:51:42.004Z,16.75
2023-01-26T08:52:23.764Z,13.98
2023-01-26T08:53:05.496Z,15.52
2023-01-26T08:53:47.217Z,14.82
2023-01-26T08:54:29.089Z,15.05
2023-01-26T08:55:10.840Z,14.85
2023-01-26T08:55:52.501Z,13.82
2023-01-26T08:56:34.506Z,15.27
2023-01-26T08:57:16.486Z,15.45
2023-01-26T08:57:58.700Z,13.98
2023-01-26T08:58:40.412Z,14.52
2023-01-26T08:59:22.093Z,15.43
2023-01-26T09:00:04.506Z,15.52
2023-01-26T09:00:46.235Z,15.68
2023-01-26T09:01:28.209Z,14.55
2023-01-26T09:02:11.101Z,13.27
2023-01-26T09:03:00.620Z,14.07
2023-01-26T09:03:43.534Z,15.07
2023-01-26T09:04:27.275Z,14.90
2023-01-26T09:05:09.374Z,17.83
2023-01-26T09:05:51.031Z,21.23
2023-01-26T09:06:33.170Z,19.13
2023-01-26T09:07:14.917Z,20.75
2023-01-26T09:07:56.575Z,20.20
2023-01-26T09:08:38.343Z,23.63
2023-01-26T09:09:20.037Z,19.38
2023-01-26T09:10:01.765Z,16.88
2023-01-26T09:10:45.191Z,18.80
2023-01-26T09:11:28.130Z,17.80
2023-01-26T09:12:09.836Z,19.42
2023-01-26T09:12:51.510Z,16.20
2023-01-26T09:13:33.563Z,14.30
2023-01-26T09:14:15.315Z,14.77
2023-01-26T09:14:57.130Z,14.55
2023-01-26T09:15:38.925Z,17.70
2023-01-26T09:16:20.895Z,20.77
2023-01-26T09:17:02.552Z,17.42
2023-01-26T09:17:44.219Z,16.38
2023-01-26T09:18:25.988Z,12.77
2023-01-26T09:19:07.842Z,13.23
2023-01-26T09:19:49.473Z,14.45
2023-01-26T09:20:31.132Z,30.23
2023-01-26T09:21:12.831Z,24.33
2023-01-26T09:21:55.273Z,23.42
2023-01-26T09:22:37.229Z,18.60
2023-01-26T09:23:18.887Z,20.25
2023-01-26T09:24:00.658Z,23.95
2023-01-26T09:24:42.895Z,23.00
2023-01-26T09:25:24.534Z,21.15
2023-01-26T09:26:06.211Z,19.73
2023-01-26T09:26:48.158Z,18.40
2023-01-26T09:27:29.847Z,19.17
2023-01-26T09:28:11.491Z,28.38
2023-01-26T09:28:53.231Z,30.58
2023-01-26T09:29:34.888Z,28.00
2023-01-26T09:30:17.000Z,23.13
2023-01-26T09:31:07.403Z,20.85
2023-01-26T09:31:49.195Z,21.92
2023-01-26T09:32:31.607Z,22.00
2023-01-26T09:33:13.256Z,23.08
2023-01-26T09:33:55.002Z,36.45
2023-01-26T09:34:36.664Z,33.90
2023-01-26T09:35:18.676Z,28.13
2023-01-26T09:36:11.304Z,23.67
2023-01-26T09:36:52.954Z,44.10
2023-01-26T09:37:34.566Z,39.05
2023-01-26T09:38:16.170Z,35.53
2023-01-26T09:38:57.833Z,37.35
2023-01-26T09:39:39.458Z,56.40
2023-01-26T09:41:00.060Z,50.75
2023-01-26T09:41:51.925Z,32.17
2023-01-26T09:42:47.122Z,19.23
2023-01-26T09:43:29.324Z,15.43
2023-01-26T09:44:18.690Z,17.83
2023-01-26T09:45:03.274Z,18.73
2023-01-26T09:46:16.875Z,17.00
2023-01-26T09:47:17.969Z,15.45